createdAt,value
2023-03-06T00:01:28.871Z,7.25
2023-03-06T00:04:30.959Z,6.63
2023-03-06T00:07:33.199Z,6.07
2023-03-06T00:10:35.600Z,6.40
2023-03-06T00:13:38.657Z,6.60
2023-03-06T00:16:40.803Z,8.13
2023-03-06T00:19:42.994Z,6.80
2023-03-06T00:22:45.282Z,6.93
2023-03-06T00:25:47.441Z,5.43
2023-03-06T00:28:49.557Z,5.47
2023-03-06T00:31:52.319Z,6.93
2023-03-06T00:34:55.321Z,5.78
2023-03-06T00:37:59.729Z,4.70
2023-03-06T00:41:10.039Z,6.18
2023-03-06T00:44:12.231Z,5.78
2023-03-06T00:47:17.199Z,5.35
2023-03-06T00:50:19.538Z,4.37
2023-03-06T00:53:21.689Z,7.03
2023-03-06T00:56:25.137Z,5.13
2023-03-06T00:59:30.402Z,4.53
2023-03-06T01:02:32.821Z,5.70
2023-03-06T01:05:36.606Z,5.72
2023-03-06T01:08:38.795Z,6.93
2023-03-06T01:11:41.026Z,4.35
2023-03-06T01:14:43.128Z,6.15
2023-03-06T01:17:45.446Z,5.28
2023-03-06T01:20:47.645Z,5.77
2023-03-06T01:23:49.816Z,5.93
2023-03-06T01:26:51.932Z,5.65
2023-03-06T01:29:54.109Z,4.83
2023-03-06T01:32:56.980Z,5.18
2023-03-06T01:35:59.219Z,4.05
2023-03-06T01:39:01.445Z,5.85
2023-03-06T01:42:03.954Z,6.13
2023-03-06T01:45:09.528Z,6.40
2023-03-06T01:48:12.257Z,4.95
2023-03-06T01:51:14.871Z,5.93
2023-03-06T01:54:52.740Z,4.50
2023-03-06T01:57:57.716Z,7.38
2023-03-06T02:01:00.004Z,5.47
2023-03-06T02:04:02.464Z,6.35
2023-03-06T02:07:08.371Z,5.07
2023-03-06T02:10:10.976Z,5.38
2023-03-06T02:13:13.241Z,6.25
2023-03-06T02:16:16.313Z,4.68
2023-03-06T02:19:35.661Z,4.38
2023-03-06T02:22:44.404Z,6.00
2023-03-06T02:25:48.711Z,5.82
2023-03-06T02:28:50.940Z,6.07
2023-03-06T02:31:53.195Z,5.70
2023-03-06T02:34:57.206Z,5.63
2023-03-06T02:38:03.563Z,6.22
2023-03-06T02:41:08.440Z,7.05
2023-03-06T02:44:10.714Z,5.75
2023-03-06T02:47:13.007Z,7.00
2023-03-06T02:50:15.183Z,5.80
2023-03-06T02:53:18.944Z,5.07
2023-03-06T02:56:21.177Z,4.97
2023-03-06T02:59:23.523Z,4.80
2023-03-06T03:02:26.262Z,5.17
2023-03-06T03:05:28.508Z,4.60
2023-03-06T03:08:37.404Z,5.88
2023-03-06T03:11:40.492Z,5.40
2023-03-06T03:14:42.773Z,5.63
2023-03-06T03:17:45.053Z,6.63
2023-03-06T03:20:47.288Z,5.95
2023-03-06T03:23:49.727Z,5.03
2023-03-06T03:26:51.973Z,5.40
2023-03-06T03:30:00.340Z,5.88
2023-03-06T03:33:04.472Z,6.47
2023-03-06T03:36:08.563Z,5.95
2023-03-06T03:39:15.243Z,4.47
2023-03-06T03:42:18.223Z,5.28
2023-03-06T03:45:20.575Z,5.53
2023-03-06T03:48:22.859Z,4.93
2023-03-06T03:51:25.522Z,5.75
2023-03-06T03:54:30.281Z,5.40
2023-03-06T03:57:32.598Z,4.90
2023-03-06T04:00:35.619Z,5.97
2023-03-06T04:03:45.820Z,7.50
2023-03-06T04:06:50.869Z,5.82
2023-03-06T04:09:54.786Z,5.75
2023-03-06T04:13:00.186Z,5.10
2023-03-06T04:16:04.679Z,6.55
2023-03-06T04:19:08.794Z,6.53
2023-03-06T04:22:11.150Z,7.70
2023-03-06T04:25:14.796Z,6.30
2023-03-06T04:28:17.151Z,6.55
2023-03-06T04:31:19.932Z,5.55
2023-03-06T04:34:22.437Z,5.10
2023-03-06T04:37:25.761Z,6.00
2023-03-06T04:40:31.563Z,6.78
2023-03-06T04:43:39.541Z,6.25
2023-03-06T04:46:41.720Z,5.78
2023-03-06T04:49:43.834Z,5.85
2023-03-06T04:52:46.270Z,6.53
2023-03-06T04:55:48.474Z,6.20
2023-03-06T04:58:53.529Z,8.10
2023-03-06T05:01:55.932Z,8.57
2023-03-06T05:04:58.112Z,7.10
2023-03-06T05:08:00.313Z,7.78
2023-03-06T05:21:28.495Z,7.20
2023-03-06T05:24:33.575Z,7.55
2023-03-06T05:31:09.005Z,7.00
2023-03-06T05:34:28.057Z,7.88
2023-03-06T05:37:31.339Z,9.30
2023-03-06T05:40:34.031Z,6.97
2023-03-06T05:43:36.180Z,8.45
2023-03-06T05:46:38.529Z,6.55
2023-03-06T05:49:41.133Z,7.65
2023-03-06T05:52:43.710Z,8.57
2023-03-06T05:55:45.815Z,8.25
2023-03-06T05:58:48.318Z,9.00
2023-03-06T06:01:53.429Z,7.15
2023-03-06T06:04:55.645Z,9.32
2023-03-06T06:07:57.795Z,6.17
2023-03-06T06:11:00.021Z,8.15
2023-03-06T06:14:02.167Z,7.00
2023-03-06T06:17:04.647Z,7.10
2023-03-06T06:20:10.642Z,8.38
2023-03-06T06:23:13.151Z,7.93
2023-03-06T06:26:15.556Z,8.50
2023-03-06T06:29:18.170Z,8.53
2023-03-06T06:32:20.410Z,7.25
2023-03-06T06:35:23.415Z,8.77
2023-03-06T06:38:25.752Z,6.97
2023-03-06T06:41:46.292Z,8.75
2023-03-06T06:44:51.481Z,7.68
2023-03-06T06:47:53.808Z,9.98
2023-03-06T06:50:59.625Z,7.60
2023-03-06T06:54:01.863Z,7.57
2023-03-06T06:57:04.113Z,8.85
2023-03-06T07:00:09.428Z,9.00
2023-03-06T07:03:14.777Z,9.07
2023-03-06T07:06:17.105Z,8.02
2023-03-06T07:09:24.169Z,10.40
2023-03-06T07:12:26.492Z,7.88
2023-03-06T07:15:30.790Z,8.65
2023-03-06T07:18:32.948Z,8.02
2023-03-06T07:21:35.190Z,10.27
2023-03-06T07:24:37.382Z,10.00
2023-03-06T07:27:40.698Z,10.82
2023-03-06T07:30:43.261Z,11.60
2023-03-06T07:33:45.384Z,10.27
2023-03-06T07:36:47.571Z,8.23
2023-03-06T07:39:49.780Z,8.80
2023-03-06T07:43:09.140Z,9.57
2023-03-06T07:46:19.286Z,8.40
2023-03-06T07:49:21.641Z,10.05
2023-03-06T07:52:26.470Z,12.35
2023-03-06T07:55:29.910Z,12.65
2023-03-06T07:58:32.127Z,12.07
2023-03-06T08:01:36.506Z,11.43
2023-03-06T08:04:39.333Z,12.25
2023-03-06T08:07:42.778Z,10.77
2023-03-06T08:10:49.406Z,11.50
2023-03-06T08:13:52.949Z,9.35
2023-03-06T08:16:56.345Z,10.68
2023-03-06T08:19:58.530Z,16.08
2023-03-06T08:23:00.892Z,15.38
2023-03-06T08:26:06.258Z,11.40
2023-03-06T08:29:10.100Z,10.80
2023-03-06T08:32:12.646Z,12.87
2023-03-06T08:35:15.569Z,10.75
2023-03-06T08:38:18.049Z,10.82
2023-03-06T08:41:22.929Z,9.20
2023-03-06T08:44:26.316Z,15.13
2023-03-06T08:47:32.085Z,10.30
2023-03-06T08:50:41.880Z,11.15
2023-03-06T08:53:45.834Z,12.07
2023-03-06T08:56:48.073Z,11.40
2023-03-06T08:59:50.697Z,12.43
2023-03-06T09:02:57.542Z,12.27
2023-03-06T09:06:02.927Z,13.52
2023-03-06T09:09:06.904Z,14.70
2023-03-06T09:12:09.330Z,12.57
2023-03-06T09:15:12.760Z,13.02
2023-03-06T09:18:14.953Z,13.77
2023-03-06T09:21:17.161Z,13.25
2023-03-06T09:24:19.393Z,11.70
2023-03-06T09:27:22.756Z,11.80
2023-03-06T09:30:25.674Z,12.23
2023-03-06T09:33:28.766Z,11.17
2023-03-06T09:36:31.010Z,10.98
2023-03-06T09:39:34.191Z,12.50
2023-03-06T09:42:37.822Z,13.53
2023-03-06T09:45:40.550Z,11.75
2023-03-06T09:48:45.593Z,11.27
2023-03-06T09:52:08.709Z,10.18
2023-03-06T09:55:27.201Z,10.27
2023-03-06T09:58:32.292Z,10.63
2023-03-06T10:01:44.906Z,10.20
2023-03-06T10:04:55.838Z,12.10
2023-03-06T10:08:03.656Z,12.13
2023-03-06T10:11:09.336Z,8.88
2023-03-06T10:14:33.540Z,11.57
2023-03-06T10:17:38.279Z,11.25
2023-03-06T10:21:13.418Z,8.60
2023-03-06T10:24:38.201Z,9.90
2023-03-06T10:27:46.999Z,13.05
2023-03-06T10:31:00.341Z,9.43
2023-03-06T10:34:28.962Z,10.27
2023-03-06T10:37:32.571Z,11.43
2023-03-06T10:40:46.314Z,9.68
2023-03-06T10:44:00.720Z,12.25
2023-03-06T10:47:30.133Z,14.23
2023-03-06T10:50:34.531Z,10.32
2023-03-06T10:53:49.298Z,13.05
2023-03-06T10:56:54.271Z,10.75
2023-03-06T11:00:15.303Z,11.10
2023-03-06T11:03:30.726Z,11.48
2023-03-06T11:06:44.487Z,11.98
2023-03-06T11:10:02.286Z,9.43
2023-03-06T11:13:07.667Z,13.80
2023-03-06T11:16:44.826Z,24.20
2023-03-06T11:19:50.428Z,11.67
2023-03-06T11:22:56.771Z,8.63
2023-03-06T11:26:24.836Z,11.88
2023-03-06T11:29:44.713Z,9.35
2023-03-06T11:32:56.010Z,9.20
2023-03-06T11:36:12.511Z,11.93
2023-03-06T11:39:26.669Z,10.82
2023-03-06T11:42:43.659Z,10.70
2023-03-06T11:45:51.646Z,10.52
2023-03-06T11:49:14.065Z,8.88
2023-03-06T11:52:37.379Z,12.77
2023-03-06T11:56:19.255Z,12.32
2023-03-06T11:59:40.628Z,11.18
2023-03-06T12:03:11.538Z,13.23
2023-03-06T12:06:37.035Z,11.02
2023-03-06T12:09:56.798Z,12.00
2023-03-06T12:16:50.186Z,10.03
2023-03-06T12:20:32.233Z,10.15
2023-03-06T12:23:40.445Z,10.95
2023-03-06T12:26:59.929Z,11.40
2023-03-06T12:30:25.718Z,9.88
2023-03-06T12:34:02.208Z,10.00
2023-03-06T12:37:20.163Z,13.27
2023-03-06T12:40:26.581Z,12.32
2023-03-06T12:43:56.794Z,13.18
2023-03-06T12:47:15.181Z,11.95
2023-03-06T12:50:26.221Z,12.30
2023-03-06T12:53:35.216Z,9.15
2023-03-06T12:56:42.993Z,12.57
2023-03-06T12:59:49.294Z,12.03
2023-03-06T13:03:17.318Z,12.95
2023-03-06T13:06:30.898Z,14.50
2023-03-06T13:10:13.965Z,10.85
2023-03-06T13:13:41.702Z,11.18
2023-03-06T13:16:43.945Z,13.15
2023-03-06T13:19:46.696Z,11.45
2023-03-06T13:22:49.068Z,14.27
2023-03-06T13:25:51.398Z,11.48
2023-03-06T13:28:54.845Z,12.32
2023-03-06T13:32:00.037Z,12.60
2023-03-06T13:35:02.798Z,12.63
2023-03-06T13:38:17.216Z,16.45
2023-03-06T13:41:22.501Z,15.07
2023-03-06T13:44:24.708Z,14.57
2023-03-06T13:47:29.897Z,18.02
2023-03-06T13:50:45.315Z,12.32
2023-03-06T13:54:01.701Z,16.67
2023-03-06T13:57:10.398Z,13.50
2023-03-06T14:00:57.297Z,12.63
2023-03-06T14:04:11.402Z,15.53
2023-03-06T14:07:33.455Z,14.85
2023-03-06T14:10:37.082Z,12.95
2023-03-06T14:13:47.553Z,17.85
2023-03-06T14:16:53.525Z,14.65
2023-03-06T14:19:59.831Z,13.55
2023-03-06T14:23:28.008Z,13.88
2023-03-06T14:26:40.364Z,13.67
2023-03-06T14:29:42.643Z,11.27
2023-03-06T14:32:45.249Z,12.45
2023-03-06T14:35:51.544Z,12.77
2023-03-06T14:38:56.939Z,15.27
2023-03-06T14:42:29.159Z,16.30
2023-03-06T14:45:31.333Z,14.02
2023-03-06T14:48:45.318Z,14.10
2023-03-06T14:52:00.524Z,14.65
2023-03-06T14:55:02.929Z,18.55
2023-03-06T14:58:14.805Z,13.00
2023-03-06T15:01:23.131Z,14.60
2023-03-06T15:04:42.565Z,15.15
2023-03-06T15:07:45.481Z,14.53
2023-03-06T15:11:04.112Z,12.90
2023-03-06T15:14:06.331Z,15.38
2023-03-06T15:17:41.490Z,12.50
2023-03-06T15:20:54.128Z,15.43
2023-03-06T15:23:57.077Z,14.38
2023-03-06T15:27:14.289Z,13.48
2023-03-06T15:30:27.556Z,13.00
2023-03-06T15:33:30.122Z,14.10
2023-03-06T15:36:35.213Z,13.70
2023-03-06T15:39:39.461Z,11.90
2023-03-06T15:42:42.538Z,13.18
2023-03-06T15:45:44.781Z,14.70
2023-03-06T15:48:54.665Z,15.00
2023-03-06T15:51:56.956Z,16.38
2023-03-06T15:54:59.465Z,15.65
2023-03-06T15:58:04.921Z,13.57
2023-03-06T16:01:08.096Z,14.60
2023-03-06T16:04:10.390Z,13.52
2023-03-06T16:07:13.009Z,13.60
2023-03-06T16:10:23.015Z,13.87
2023-03-06T16:13:27.387Z,14.98
2023-03-06T16:16:36.630Z,15.60
2023-03-06T16:19:38.820Z,17.50
2023-03-06T16:22:41.056Z,13.35
2023-03-06T16:25:45.865Z,14.70
2023-03-06T16:28:49.601Z,14.35
2023-03-06T16:31:52.043Z,12.83
2023-03-06T16:34:54.146Z,17.63
2023-03-06T16:37:56.614Z,14.77
2023-03-06T16:40:58.798Z,14.77
2023-03-06T16:44:00.997Z,12.57
2023-03-06T16:47:03.178Z,14.52
2023-03-06T16:50:07.199Z,14.63
2023-03-06T16:53:09.378Z,16.73
2023-03-06T16:56:17.050Z,15.82
2023-03-06T16:59:19.290Z,13.18
2023-03-06T17:02:21.405Z,14.07
2023-03-06T17:05:24.365Z,14.35
2023-03-06T17:08:26.810Z,14.70
2023-03-06T17:11:29.394Z,11.80
2023-03-06T17:14:33.765Z,15.05
2023-03-06T17:17:36.011Z,13.80
2023-03-06T17:20:38.545Z,14.23
2023-03-06T17:23:40.912Z,13.77
2023-03-06T17:26:44.293Z,14.52
2023-03-06T17:29:46.604Z,12.98
2023-03-06T17:32:48.848Z,14.87
2023-03-06T17:35:57.739Z,11.60
2023-03-06T17:39:01.943Z,13.05
2023-03-06T17:42:04.739Z,15.97
2023-03-06T17:45:09.335Z,17.65
2023-03-06T17:48:11.875Z,13.57
2023-03-06T17:51:14.186Z,15.43
2023-03-06T17:54:16.414Z,15.95
2023-03-06T17:57:18.596Z,15.88
2023-03-06T18:00:22.840Z,17.27
2023-03-06T18:03:25.325Z,18.63
2023-03-06T18:06:30.144Z,14.82
2023-03-06T18:09:32.409Z,15.52
2023-03-06T18:12:34.607Z,18.37
2023-03-06T18:15:40.463Z,15.05
2023-03-06T18:18:42.805Z,15.07
2023-03-06T18:21:47.211Z,18.40
2023-03-06T18:24:49.371Z,16.80
2023-03-06T18:27:51.524Z,16.48
2023-03-06T18:30:53.635Z,16.80
2023-03-06T18:33:58.128Z,16.60
2023-03-06T18:37:00.247Z,18.60
2023-03-06T18:40:02.379Z,15.10
2023-03-06T18:43:04.518Z,16.00
2023-03-06T18:46:07.053Z,19.27
2023-03-06T18:49:11.062Z,16.58
2023-03-06T18:52:13.487Z,17.33
2023-03-06T18:55:15.811Z,15.30
2023-03-06T18:58:19.040Z,16.48
2023-03-06T19:01:22.435Z,18.08
2023-03-06T19:04:25.787Z,15.47
2023-03-06T19:07:27.931Z,15.93
2023-03-06T19:10:31.317Z,16.50
2023-03-06T19:13:33.632Z,13.60
2023-03-06T19:16:35.800Z,17.27
2023-03-06T19:19:38.009Z,16.13
2023-03-06T19:22:40.229Z,15.23
2023-03-06T19:25:42.479Z,15.35
2023-03-06T19:28:45.211Z,17.02
2023-03-06T19:31:47.466Z,17.77
2023-03-06T19:34:49.707Z,19.20
2023-03-06T19:37:52.327Z,20.50
2023-03-06T19:40:54.881Z,17.67
2023-03-06T19:43:59.668Z,18.97
2023-03-06T19:47:01.781Z,17.75
2023-03-06T19:50:04.263Z,12.77
2023-03-06T19:53:07.768Z,17.15
2023-03-06T19:56:31.885Z,16.33
2023-03-06T19:59:34.102Z,16.02
2023-03-06T20:02:36.501Z,16.80
2023-03-06T20:05:45.713Z,16.83
2023-03-06T20:08:48.924Z,15.10
2023-03-06T20:11:51.127Z,16.98
2023-03-06T20:14:53.336Z,15.80
2023-03-06T20:17:56.770Z,16.55
2023-03-06T20:21:00.896Z,16.83
2023-03-06T20:24:04.572Z,17.90
2023-03-06T20:27:06.921Z,17.77
2023-03-06T20:30:09.620Z,14.30
2023-03-06T20:33:11.854Z,18.92
2023-03-06T20:36:27.474Z,19.70
2023-03-06T20:39:29.716Z,19.88
2023-03-06T20:42:32.203Z,18.35
2023-03-06T20:45:34.586Z,22.17
2023-03-06T20:48:36.835Z,19.15
2023-03-06T20:51:39.733Z,19.15
2023-03-06T20:54:41.925Z,22.08
2023-03-06T20:57:44.097Z,20.90
2023-03-06T21:00:46.451Z,20.98
2023-03-06T21:03:49.488Z,18.55
2023-03-06T21:06:53.337Z,18.90
2023-03-06T21:09:55.712Z,19.70
2023-03-06T21:12:57.897Z,18.45
2023-03-06T21:16:03.904Z,18.37
2023-03-06T21:19:06.375Z,17.52
2023-03-06T21:22:08.637Z,21.83
2023-03-06T21:25:12.735Z,20.35
2023-03-06T21:28:15.164Z,18.52
2023-03-06T21:31:19.488Z,21.98
2023-03-06T21:34:21.631Z,22.35
2023-03-06T21:37:23.854Z,23.37
2023-03-06T21:40:26.005Z,18.58
2023-03-06T21:43:28.121Z,22.08
2023-03-06T21:46:30.468Z,19.03
2023-03-06T21:49:32.706Z,21.30
2023-03-06T21:52:34.910Z,20.60
2023-03-06T21:55:40.836Z,22.00
2023-03-06T21:58:43.347Z,26.33
2023-03-06T22:01:47.449Z,23.63
2023-03-06T22:04:53.229Z,20.42
2023-03-06T22:07:59.344Z,25.83
2023-03-06T22:11:08.851Z,22.52
2023-03-06T22:14:11.120Z,20.38
2023-03-06T22:17:13.628Z,23.90
2023-03-06T22:20:15.867Z,24.60
2023-03-06T22:23:18.095Z,21.25
2023-03-06T22:26:20.523Z,21.25
2023-03-06T22:29:23.972Z,21.60
2023-03-06T22:32:26.308Z,23.48
2023-03-06T22:35:28.545Z,23.58
2023-03-06T22:38:30.899Z,24.10
2023-03-06T22:41:33.150Z,22.60
2023-03-06T22:44:35.438Z,22.52
2023-03-06T22:47:37.746Z,24.67
2023-03-06T22:50:39.910Z,21.45
2023-03-06T22:53:42.740Z,26.73
2023-03-06T22:56:44.913Z,24.65
2023-03-06T22:59:47.103Z,22.10
2023-03-06T23:02:49.289Z,25.30
2023-03-06T23:05:51.472Z,25.50
2023-03-06T23:08:56.360Z,26.87
2023-03-06T23:11:58.715Z,22.88
2023-03-06T23:15:19.145Z,23.48
2023-03-06T23:18:40.686Z,23.03
2023-03-06T23:22:01.112Z,23.02
2023-03-06T23:25:21.961Z,23.45
2023-03-06T23:28:24.079Z,24.92
2023-03-06T23:31:28.837Z,25.15
2023-03-06T23:34:30.978Z,23.40
2023-03-06T23:37:33.222Z,25.88
2023-03-06T23:40:36.795Z,26.00
2023-03-06T23:43:39.244Z,23.40
2023-03-06T23:46:41.502Z,24.85
2023-03-06T23:49:43.708Z,25.00
2023-03-06T23:52:46.019Z,23.88
2023-03-06T23:55:50.304Z,24.20
2023-03-06T23:58:52.526Z,23.67
